createdAt,value
2022-08-31T00:01:02.490Z,13.98
2022-08-31T00:04:05.726Z,13.86
2022-08-31T00:07:08.319Z,13.81
2022-08-31T00:10:14.974Z,13.77
2022-08-31T00:13:19.172Z,13.69
2022-08-31T00:16:21.947Z,13.82
2022-08-31T00:19:24.656Z,13.81
2022-08-31T00:22:27.324Z,13.82
2022-08-31T00:25:29.985Z,13.72
2022-08-31T00:28:34.127Z,13.75
2022-08-31T00:31:36.737Z,13.74
2022-08-31T00:34:39.407Z,13.62
2022-08-31T00:37:42.188Z,13.67
2022-08-31T00:40:46.914Z,13.50
2022-08-31T00:43:53.639Z,13.55
2022-08-31T00:46:56.233Z,13.53
2022-08-31T00:49:59.163Z,13.43
2022-08-31T00:53:02.450Z,13.43
2022-08-31T00:56:05.940Z,13.42
2022-08-31T00:59:09.891Z,13.43
2022-08-31T01:02:12.515Z,13.40
2022-08-31T01:05:16.079Z,13.49
2022-08-31T01:08:18.913Z,13.45
2022-08-31T01:11:30.269Z,13.52
2022-08-31T01:14:35.676Z,13.54
2022-08-31T01:17:39.518Z,13.56
2022-08-31T01:20:49.450Z,13.60
2022-08-31T01:23:56.058Z,13.57
2022-08-31T01:27:03.424Z,13.56
2022-08-31T01:30:09.673Z,13.44
2022-08-31T01:33:13.297Z,13.54
2022-08-31T01:36:17.085Z,13.49
2022-08-31T01:39:21.876Z,13.43
2022-08-31T01:42:33.453Z,13.51
2022-08-31T01:45:37.059Z,13.54
2022-08-31T01:48:41.767Z,13.41
2022-08-31T01:51:45.097Z,13.43
2022-08-31T01:54:49.066Z,13.44
2022-08-31T01:57:51.737Z,13.29
2022-08-31T02:00:54.433Z,13.34
2022-08-31T02:03:57.426Z,13.29
2022-08-31T02:07:02.303Z,13.46
2022-08-31T02:10:07.331Z,13.48
2022-08-31T02:13:09.931Z,13.49
2022-08-31T02:16:12.555Z,13.46
2022-08-31T02:19:15.182Z,13.42
2022-08-31T02:22:17.793Z,13.39
2022-08-31T02:25:22.031Z,13.24
2022-08-31T02:28:24.649Z,13.17
2022-08-31T02:31:27.486Z,13.36
2022-08-31T02:34:30.243Z,13.25
2022-08-31T02:37:33.020Z,13.21
2022-08-31T02:40:41.009Z,13.25
2022-08-31T02:43:44.299Z,13.21
2022-08-31T02:46:47.009Z,13.18
2022-08-31T02:49:49.651Z,13.20
2022-08-31T02:52:55.030Z,13.25
2022-08-31T02:55:59.049Z,13.17
2022-08-31T02:59:01.661Z,13.19
2022-08-31T03:02:04.729Z,13.20
2022-08-31T03:05:08.954Z,13.10
2022-08-31T03:08:11.687Z,13.08
2022-08-31T03:11:16.454Z,13.11
2022-08-31T03:14:19.081Z,13.08
2022-08-31T03:17:21.695Z,13.15
2022-08-31T03:20:26.429Z,13.17
2022-08-31T03:23:29.014Z,13.12
2022-08-31T03:26:33.206Z,13.16
2022-08-31T03:29:36.791Z,13.14
2022-08-31T03:32:40.011Z,13.04
2022-08-31T03:35:44.123Z,13.03
2022-08-31T03:38:46.855Z,13.05
2022-08-31T03:41:50.780Z,13.01
2022-08-31T03:44:53.492Z,12.96
2022-08-31T03:47:56.179Z,12.87
2022-08-31T03:50:58.957Z,13.03
2022-08-31T03:54:01.531Z,12.92
2022-08-31T03:57:06.883Z,12.95
2022-08-31T04:00:11.117Z,12.99
2022-08-31T04:03:14.088Z,12.92
2022-08-31T04:06:16.866Z,13.00
2022-08-31T04:09:21.113Z,12.96
2022-08-31T04:12:25.079Z,12.79
2022-08-31T04:15:27.727Z,12.94
2022-08-31T04:18:32.111Z,12.85
2022-08-31T04:21:34.999Z,12.90
2022-08-31T04:24:37.643Z,12.92
2022-08-31T04:27:42.437Z,12.88
2022-08-31T04:30:45.050Z,12.85
2022-08-31T04:33:48.000Z,12.83
2022-08-31T04:36:50.704Z,12.96
2022-08-31T04:39:55.446Z,12.82
2022-08-31T04:43:03.093Z,12.94
2022-08-31T04:46:08.437Z,12.97
2022-08-31T04:49:14.506Z,12.98
2022-08-31T04:52:17.139Z,12.91
2022-08-31T04:55:19.991Z,12.98
2022-08-31T04:58:24.601Z,13.04
2022-08-31T05:01:29.716Z,13.03
2022-08-31T05:04:38.871Z,13.07
2022-08-31T05:07:41.451Z,13.07
2022-08-31T05:10:44.010Z,13.05
2022-08-31T05:13:48.193Z,13.14
2022-08-31T05:16:51.397Z,13.08
2022-08-31T05:19:54.292Z,13.26
2022-08-31T05:22:56.851Z,13.27
2022-08-31T05:25:59.392Z,13.30
2022-08-31T05:29:07.622Z,13.37
2022-08-31T05:32:12.083Z,13.42
2022-08-31T05:35:15.175Z,13.37
2022-08-31T05:38:17.749Z,13.48
2022-08-31T05:41:20.616Z,13.55
2022-08-31T05:44:27.643Z,13.59
2022-08-31T05:47:32.243Z,13.67
2022-08-31T05:50:34.898Z,13.69
2022-08-31T05:53:37.721Z,13.86
2022-08-31T05:56:42.883Z,13.89
2022-08-31T05:59:46.981Z,13.97
2022-08-31T06:02:53.748Z,14.04
2022-08-31T06:05:56.529Z,14.10
2022-08-31T06:08:59.404Z,14.13
2022-08-31T06:12:01.983Z,14.21
2022-08-31T06:15:07.531Z,14.34
2022-08-31T06:18:10.634Z,14.41
2022-08-31T06:21:13.169Z,14.44
2022-08-31T06:24:15.755Z,14.57
2022-08-31T06:27:19.072Z,14.74
2022-08-31T06:30:27.138Z,14.85
2022-08-31T06:33:30.660Z,14.96
2022-08-31T06:36:33.606Z,15.11
2022-08-31T06:39:36.423Z,15.25
2022-08-31T06:42:39.691Z,15.47
2022-08-31T06:45:43.753Z,15.65
2022-08-31T06:48:46.741Z,15.79
2022-08-31T06:51:50.394Z,15.99
2022-08-31T06:54:53.047Z,16.08
2022-08-31T06:57:55.632Z,16.03
2022-08-31T07:00:59.711Z,16.29
2022-08-31T07:04:07.061Z,16.43
2022-08-31T07:07:11.362Z,16.43
2022-08-31T07:10:14.336Z,16.75
2022-08-31T07:13:17.031Z,16.83
2022-08-31T07:16:22.620Z,17.09
2022-08-31T07:19:26.428Z,17.30
2022-08-31T07:22:29.139Z,17.40
2022-08-31T07:25:31.788Z,17.53
2022-08-31T07:28:35.314Z,17.77
2022-08-31T07:31:44.611Z,18.02
2022-08-31T07:34:50.745Z,18.08
2022-08-31T07:38:15.337Z,18.25
2022-08-31T07:41:50.120Z,18.38
2022-08-31T07:44:54.370Z,18.62
2022-08-31T07:47:59.871Z,18.84
2022-08-31T07:51:02.583Z,18.96
2022-08-31T07:54:06.824Z,19.05
2022-08-31T07:57:09.965Z,19.16
2022-08-31T08:00:14.566Z,19.43
2022-08-31T08:03:18.783Z,19.57
2022-08-31T08:06:21.959Z,19.68
2022-08-31T08:09:25.345Z,19.82
2022-08-31T08:12:28.512Z,20.00
2022-08-31T08:15:33.091Z,20.19
2022-08-31T08:18:39.610Z,20.53
2022-08-31T08:21:43.462Z,20.58
2022-08-31T08:24:47.217Z,20.76
2022-08-31T08:27:49.896Z,20.99
2022-08-31T08:30:54.479Z,21.11
2022-08-31T08:33:59.250Z,21.14
2022-08-31T08:37:02.185Z,21.54
2022-08-31T08:40:06.516Z,21.94
2022-08-31T08:43:11.970Z,22.22
2022-08-31T08:46:34.054Z,22.28
2022-08-31T08:49:43.830Z,22.35
2022-08-31T08:52:47.340Z,23.17
2022-08-31T08:55:50.565Z,23.15
2022-08-31T08:58:53.167Z,23.15
2022-08-31T09:02:06.819Z,23.28
2022-08-31T09:05:24.128Z,23.53
2022-08-31T09:08:48.693Z,23.63
2022-08-31T09:12:05.045Z,23.88
2022-08-31T09:15:37.208Z,22.77
2022-08-31T09:18:47.302Z,23.52
2022-08-31T09:21:53.413Z,24.18
2022-08-31T09:24:59.516Z,24.56
2022-08-31T09:28:04.574Z,24.95
2022-08-31T09:31:07.222Z,23.66
2022-08-31T09:34:14.301Z,22.74
2022-08-31T09:37:22.407Z,22.16
2022-08-31T09:40:37.101Z,22.44
2022-08-31T09:43:41.204Z,24.09
2022-08-31T09:46:48.395Z,23.10
2022-08-31T09:49:57.801Z,22.69
2022-08-31T09:53:31.608Z,24.33
2022-08-31T09:56:55.400Z,24.55
2022-08-31T09:59:58.175Z,25.46
2022-08-31T10:03:12.136Z,26.09
2022-08-31T10:06:45.608Z,26.80
2022-08-31T10:09:57.949Z,27.17
2022-08-31T10:13:05.221Z,27.47
2022-08-31T10:16:17.114Z,27.03
2022-08-31T10:19:32.949Z,27.18
2022-08-31T10:22:41.913Z,27.22
2022-08-31T10:25:52.601Z,25.91
2022-08-31T10:28:59.213Z,25.71
2022-08-31T10:32:09.465Z,26.38
2022-08-31T10:35:19.379Z,27.14
2022-08-31T10:38:28.226Z,25.69
2022-08-31T10:41:37.310Z,24.97
2022-08-31T10:44:52.264Z,26.17
2022-08-31T10:47:56.811Z,25.43
2022-08-31T10:51:19.311Z,25.37
2022-08-31T10:54:30.922Z,24.87
2022-08-31T10:57:42.530Z,24.59
2022-08-31T11:00:52.933Z,24.94
2022-08-31T11:04:29.948Z,24.03
2022-08-31T11:07:44.582Z,23.45
2022-08-31T11:10:51.689Z,25.12
2022-08-31T11:14:17.958Z,24.81
2022-08-31T11:17:34.103Z,23.73
2022-08-31T11:20:56.886Z,23.38
2022-08-31T11:24:11.625Z,23.06
2022-08-31T11:27:23.583Z,25.07
2022-08-31T11:30:32.777Z,26.71
2022-08-31T11:33:36.363Z,28.22
2022-08-31T11:36:49.993Z,28.86
2022-08-31T11:39:53.453Z,29.52
2022-08-31T11:42:57.727Z,29.62
2022-08-31T11:46:59.795Z,29.93
2022-08-31T11:50:09.598Z,30.13
2022-08-31T11:53:25.335Z,30.44
2022-08-31T11:56:36.418Z,30.59
2022-08-31T11:59:46.105Z,28.99
2022-08-31T12:03:09.344Z,27.96
2022-08-31T12:06:50.747Z,27.62
2022-08-31T12:10:27.602Z,28.66
2022-08-31T12:13:45.777Z,29.15
2022-08-31T12:17:02.092Z,28.81
2022-08-31T12:20:13.525Z,28.02
2022-08-31T12:23:35.545Z,28.37
2022-08-31T12:26:50.070Z,28.48
2022-08-31T12:29:53.494Z,29.56
2022-08-31T12:33:02.662Z,29.78
2022-08-31T12:36:19.015Z,30.31
2022-08-31T12:39:23.721Z,30.46
2022-08-31T12:42:26.886Z,30.64
2022-08-31T12:45:51.147Z,30.01
2022-08-31T12:49:11.766Z,29.85
2022-08-31T12:52:28.498Z,30.06
2022-08-31T12:55:38.932Z,30.73
2022-08-31T12:58:58.689Z,31.23
2022-08-31T13:02:01.880Z,31.19
2022-08-31T13:05:05.303Z,31.17
2022-08-31T13:08:21.686Z,31.05
2022-08-31T13:11:35.205Z,31.05
2022-08-31T13:14:44.656Z,31.06
2022-08-31T13:17:47.387Z,31.43
2022-08-31T13:20:56.103Z,30.81
2022-08-31T13:24:08.133Z,31.23
2022-08-31T13:27:17.115Z,31.46
2022-08-31T13:30:25.417Z,31.42
2022-08-31T13:33:31.256Z,30.75
2022-08-31T13:36:37.841Z,29.32
2022-08-31T13:39:46.050Z,27.81
2022-08-31T13:42:56.496Z,28.78
2022-08-31T13:46:00.888Z,29.31
2022-08-31T13:49:06.658Z,28.48
2022-08-31T13:52:18.562Z,27.73
2022-08-31T13:55:39.270Z,27.24
2022-08-31T13:58:41.897Z,26.83
2022-08-31T14:01:47.523Z,26.53
2022-08-31T14:05:00.232Z,26.22
2022-08-31T14:08:07.151Z,25.88
2022-08-31T14:11:14.895Z,25.56
2022-08-31T14:14:20.498Z,25.31
2022-08-31T14:17:27.052Z,25.03
2022-08-31T14:20:36.858Z,24.85
2022-08-31T14:23:39.553Z,24.84
2022-08-31T14:26:45.749Z,24.66
2022-08-31T14:29:48.309Z,24.51
2022-08-31T14:32:50.753Z,24.39
2022-08-31T14:35:55.369Z,24.32
2022-08-31T14:38:58.625Z,24.09
2022-08-31T14:42:07.019Z,24.17
2022-08-31T14:45:18.310Z,24.30
2022-08-31T14:48:21.040Z,24.44
2022-08-31T14:51:23.974Z,24.42
2022-08-31T14:54:28.430Z,24.40
2022-08-31T14:57:34.148Z,24.41
2022-08-31T15:00:43.716Z,24.39
2022-08-31T15:03:46.375Z,24.08
2022-08-31T15:06:52.538Z,24.09
2022-08-31T15:09:54.978Z,24.08
2022-08-31T15:13:05.473Z,23.84
2022-08-31T15:16:10.812Z,24.15
2022-08-31T15:19:14.824Z,24.01
2022-08-31T15:22:17.520Z,23.81
2022-08-31T15:25:22.294Z,24.08
2022-08-31T15:28:31.557Z,24.02
2022-08-31T15:31:35.325Z,23.98
2022-08-31T15:34:38.937Z,23.90
2022-08-31T15:37:44.682Z,23.86
2022-08-31T15:40:47.290Z,23.84
2022-08-31T15:43:51.464Z,23.72
2022-08-31T15:47:11.815Z,23.48
2022-08-31T15:50:19.090Z,23.34
2022-08-31T15:53:27.281Z,23.29
2022-08-31T15:56:30.383Z,23.24
2022-08-31T15:59:35.361Z,23.15
2022-08-31T16:02:38.021Z,23.06
2022-08-31T16:05:43.361Z,22.99
2022-08-31T16:08:47.056Z,22.92
2022-08-31T16:11:51.025Z,22.89
2022-08-31T16:14:55.123Z,22.79
2022-08-31T16:17:57.855Z,22.74
2022-08-31T16:21:05.942Z,22.68
2022-08-31T16:24:10.178Z,22.66
2022-08-31T16:27:16.495Z,22.66
2022-08-31T16:30:20.581Z,22.58
2022-08-31T16:33:23.243Z,22.60
2022-08-31T16:36:28.095Z,22.58
2022-08-31T16:39:31.863Z,22.72
2022-08-31T16:42:35.116Z,22.83
2022-08-31T16:45:40.882Z,22.86
2022-08-31T16:49:01.239Z,22.81
2022-08-31T16:52:06.825Z,22.81
2022-08-31T16:55:13.475Z,22.75
2022-08-31T16:58:25.114Z,22.74
2022-08-31T17:01:40.707Z,22.60
2022-08-31T17:04:53.474Z,22.52
2022-08-31T17:07:57.022Z,22.44
2022-08-31T17:11:04.854Z,22.40
2022-08-31T17:14:09.018Z,22.22
2022-08-31T17:17:16.125Z,22.25
2022-08-31T17:20:19.205Z,21.99
2022-08-31T17:23:24.474Z,21.99
2022-08-31T17:26:31.035Z,21.95
2022-08-31T17:29:43.438Z,21.88
2022-08-31T17:32:47.876Z,21.81
2022-08-31T17:35:50.482Z,21.63
2022-08-31T17:38:54.910Z,21.49
2022-08-31T17:41:58.054Z,21.41
2022-08-31T17:45:04.778Z,21.39
2022-08-31T17:48:08.731Z,21.14
2022-08-31T17:51:26.370Z,21.17
2022-08-31T17:54:32.616Z,21.17
2022-08-31T17:57:35.299Z,21.14
2022-08-31T18:00:37.944Z,21.00
2022-08-31T18:03:41.993Z,20.99
2022-08-31T18:06:45.728Z,20.80
2022-08-31T18:09:48.424Z,20.73
2022-08-31T18:12:51.056Z,20.72
2022-08-31T18:15:54.592Z,20.65
2022-08-31T18:18:58.570Z,20.54
2022-08-31T18:22:01.928Z,20.47
2022-08-31T18:25:05.451Z,20.35
2022-08-31T18:28:08.227Z,20.29
2022-08-31T18:31:11.149Z,20.20
2022-08-31T18:34:18.974Z,20.18
2022-08-31T18:37:21.880Z,20.10
2022-08-31T18:40:42.442Z,19.93
2022-08-31T18:44:02.693Z,19.87
2022-08-31T18:47:07.973Z,19.74
2022-08-31T18:50:12.177Z,19.64
2022-08-31T18:53:26.832Z,19.55
2022-08-31T18:56:31.772Z,19.45
2022-08-31T18:59:34.538Z,19.48
2022-08-31T19:02:39.730Z,19.38
2022-08-31T19:05:43.673Z,19.34
2022-08-31T19:08:46.712Z,19.26
2022-08-31T19:11:51.228Z,19.14
2022-08-31T19:14:55.287Z,19.22
2022-08-31T19:17:58.238Z,19.13
2022-08-31T19:21:13.572Z,19.12
2022-08-31T19:24:17.672Z,19.01
2022-08-31T19:27:20.234Z,18.95
2022-08-31T19:30:27.465Z,18.78
2022-08-31T19:33:33.984Z,18.67
2022-08-31T19:36:40.633Z,18.68
2022-08-31T19:39:45.801Z,18.64
2022-08-31T19:46:15.788Z,18.52
2022-08-31T19:49:18.630Z,18.38
2022-08-31T19:52:24.242Z,18.34
2022-08-31T19:55:26.822Z,18.35
2022-08-31T19:58:29.559Z,18.26
2022-08-31T20:01:34.102Z,18.26
2022-08-31T20:04:37.084Z,18.19
2022-08-31T20:07:41.466Z,18.09
2022-08-31T20:10:47.122Z,17.97
2022-08-31T20:13:50.501Z,18.00
2022-08-31T20:16:54.790Z,18.00
2022-08-31T20:20:00.861Z,17.90
2022-08-31T20:23:05.637Z,17.80
2022-08-31T20:26:09.396Z,17.75
2022-08-31T20:29:13.499Z,17.80
2022-08-31T20:32:16.112Z,17.80
2022-08-31T20:35:18.958Z,17.67
2022-08-31T20:38:23.751Z,17.64
2022-08-31T20:41:28.298Z,17.68
2022-08-31T20:44:32.682Z,17.72
2022-08-31T20:47:53.159Z,17.66
2022-08-31T20:50:56.640Z,17.64
2022-08-31T20:54:00.591Z,17.54
2022-08-31T20:57:06.230Z,17.51
2022-08-31T21:00:10.784Z,17.52
2022-08-31T21:03:14.469Z,17.46
2022-08-31T21:06:24.541Z,17.41
2022-08-31T21:09:28.618Z,17.23
2022-08-31T21:12:31.863Z,17.32
2022-08-31T21:15:34.622Z,17.29
2022-08-31T21:18:38.707Z,17.20
2022-08-31T21:21:42.037Z,17.04
2022-08-31T21:24:47.470Z,17.12
2022-08-31T21:27:50.057Z,17.02
2022-08-31T21:30:53.401Z,17.04
2022-08-31T21:33:58.316Z,17.06
2022-08-31T21:37:00.987Z,16.98
2022-08-31T21:40:06.473Z,16.84
2022-08-31T21:43:09.190Z,16.88
2022-08-31T21:46:14.062Z,16.90
2022-08-31T21:49:17.779Z,16.88
2022-08-31T21:52:20.867Z,16.85
2022-08-31T21:55:24.818Z,16.76
2022-08-31T21:58:58.373Z,16.70
2022-08-31T22:02:04.053Z,16.62
2022-08-31T22:05:12.635Z,16.59
2022-08-31T22:08:15.407Z,16.58
2022-08-31T22:11:22.746Z,16.46
2022-08-31T22:14:29.303Z,16.45
2022-08-31T22:17:57.352Z,16.43
2022-08-31T22:20:57.346Z,16.37
2022-08-31T22:24:03.627Z,16.31
2022-08-31T22:27:10.438Z,16.21
2022-08-31T22:30:14.017Z,16.25
2022-08-31T22:33:16.608Z,16.13
2022-08-31T22:36:31.794Z,16.02
2022-08-31T22:39:34.824Z,15.97
2022-08-31T22:42:38.727Z,16.09
2022-08-31T22:45:47.630Z,16.08
2022-08-31T22:48:51.303Z,15.98
2022-08-31T22:51:54.471Z,15.87
2022-08-31T22:54:57.094Z,15.85
2022-08-31T22:58:01.026Z,15.75
2022-08-31T23:01:03.624Z,15.75
2022-08-31T23:04:08.757Z,15.80
2022-08-31T23:07:12.264Z,15.79
2022-08-31T23:10:18.484Z,15.76
2022-08-31T23:13:42.487Z,15.80
2022-08-31T23:16:48.475Z,15.76
2022-08-31T23:19:54.107Z,15.78
2022-08-31T23:22:56.654Z,15.63
2022-08-31T23:26:01.494Z,15.53
2022-08-31T23:29:09.218Z,15.48
2022-08-31T23:32:13.280Z,15.53
2022-08-31T23:35:18.704Z,15.52
2022-08-31T23:38:21.446Z,15.56
2022-08-31T23:41:26.096Z,15.61
2022-08-31T23:44:30.523Z,15.55
2022-08-31T23:47:33.189Z,15.56
2022-08-31T23:50:35.877Z,15.62
2022-08-31T23:53:38.914Z,15.46
2022-08-31T23:56:44.624Z,15.45
2022-08-31T23:59:52.835Z,15.34
